createdAt,value
2018-02-05T00:01:37.232Z,68.93
2018-02-05T00:04:04.680Z,68.69
2018-02-05T00:06:32.145Z,68.85
2018-02-05T00:08:59.605Z,68.72
2018-02-05T00:11:27.057Z,68.92
2018-02-05T00:13:54.503Z,69.12
2018-02-05T00:16:21.936Z,69.74
2018-02-05T00:18:49.380Z,69.61
2018-02-05T00:21:16.892Z,69.64
2018-02-05T00:23:44.333Z,69.11
2018-02-05T00:26:11.792Z,69.12
2018-02-05T00:28:39.239Z,68.81
2018-02-05T00:31:06.661Z,68.52
2018-02-05T00:33:34.704Z,68.06
2018-02-05T00:36:02.160Z,68.29
2018-02-05T00:38:29.618Z,68.94
2018-02-05T00:40:57.076Z,68.51
2018-02-05T00:43:24.523Z,68.31
2018-02-05T00:45:51.956Z,68.25
2018-02-05T00:48:19.407Z,68.57
2018-02-05T00:50:46.832Z,68.39
2018-02-05T00:53:14.293Z,67.51
2018-02-05T00:55:41.733Z,68.17
2018-02-05T00:58:09.464Z,68.18
2018-02-05T01:00:38.373Z,68.45
2018-02-05T01:03:06.173Z,68.39
2018-02-05T01:05:33.646Z,68.33
2018-02-05T01:08:01.088Z,68.06
2018-02-05T01:10:28.565Z,69.01
2018-02-05T01:12:56.000Z,69.34
2018-02-05T01:15:23.444Z,68.48
2018-02-05T01:17:50.881Z,68.65
2018-02-05T01:20:18.343Z,68.93
2018-02-05T01:22:45.792Z,68.61
2018-02-05T01:25:13.257Z,69.07
2018-02-05T01:27:40.679Z,68.77
2018-02-05T01:30:08.127Z,68.49
2018-02-05T01:32:36.665Z,68.03
2018-02-05T01:35:04.200Z,67.64
2018-02-05T01:37:31.658Z,67.41
2018-02-05T01:39:59.128Z,67.04
2018-02-05T01:42:26.589Z,67.44
2018-02-05T01:44:54.038Z,67.26
2018-02-05T01:47:21.500Z,66.56
2018-02-05T01:49:48.944Z,66.17
2018-02-05T01:52:16.398Z,66.42
2018-02-05T01:54:43.871Z,66.21
2018-02-05T01:57:11.327Z,66.60
2018-02-05T01:59:38.752Z,67.18
2018-02-05T02:02:07.503Z,66.56
2018-02-05T02:04:35.050Z,67.70
2018-02-05T02:07:02.532Z,67.15
2018-02-05T02:09:29.967Z,66.72
2018-02-05T02:11:57.409Z,67.39
2018-02-05T02:14:24.852Z,67.21
2018-02-05T02:16:52.316Z,67.18
2018-02-05T02:19:19.772Z,67.33
2018-02-05T02:21:47.245Z,67.27
2018-02-05T02:24:14.688Z,66.56
2018-02-05T02:26:42.140Z,66.90
2018-02-05T02:29:09.603Z,66.48
2018-02-05T02:31:37.045Z,66.62
2018-02-05T02:34:04.632Z,67.10
2018-02-05T02:36:32.176Z,67.12
2018-02-05T02:38:59.625Z,66.31
2018-02-05T02:41:27.107Z,66.72
2018-02-05T02:43:54.551Z,66.92
2018-02-05T02:46:21.980Z,66.23
2018-02-05T02:48:49.433Z,66.44
2018-02-05T02:51:16.860Z,66.11
2018-02-05T02:53:44.396Z,66.43
2018-02-05T02:56:11.840Z,66.82
2018-02-05T02:58:39.305Z,67.26
2018-02-05T03:01:06.733Z,66.99
2018-02-05T03:03:34.169Z,67.61
2018-02-05T03:06:01.654Z,67.44
2018-02-05T03:08:29.108Z,67.73
2018-02-05T03:10:56.545Z,66.62
2018-02-05T03:13:24.068Z,66.56
2018-02-05T03:15:51.501Z,66.86
2018-02-05T03:18:18.933Z,66.93
2018-02-05T03:20:46.385Z,67.36
2018-02-05T03:23:13.817Z,66.80
2018-02-05T03:25:41.353Z,67.14
2018-02-05T03:28:08.767Z,67.92
2018-02-05T03:30:36.872Z,68.04
2018-02-05T03:33:04.317Z,68.77
2018-02-05T03:35:31.769Z,68.01
2018-02-05T03:37:59.193Z,67.97
2018-02-05T03:40:26.716Z,67.39
2018-02-05T03:42:54.162Z,67.87
2018-02-05T03:45:21.613Z,67.32
2018-02-05T03:47:49.071Z,66.57
2018-02-05T03:50:16.620Z,67.50
2018-02-05T03:52:44.045Z,67.53
2018-02-05T03:55:11.809Z,67.42
2018-02-05T03:57:39.236Z,66.81
2018-02-05T04:00:07.100Z,67.23
2018-02-05T04:02:34.536Z,67.72
2018-02-05T04:05:01.993Z,67.44
2018-02-05T04:07:29.428Z,66.21
2018-02-05T04:09:56.888Z,68.05
2018-02-05T04:12:24.340Z,67.29
2018-02-05T04:14:51.779Z,66.75
2018-02-05T04:17:19.272Z,67.04
2018-02-05T04:19:46.693Z,67.16
2018-02-05T04:22:14.149Z,66.78
2018-02-05T04:24:41.586Z,67.07
2018-02-05T04:27:09.032Z,66.50
2018-02-05T04:29:37.320Z,66.61
2018-02-05T04:32:04.793Z,68.07
2018-02-05T04:34:32.257Z,66.98
2018-02-05T04:36:59.716Z,66.92
2018-02-05T04:39:27.176Z,66.68
2018-02-05T04:41:54.617Z,67.71
2018-02-05T04:44:22.047Z,67.12
2018-02-05T04:46:49.511Z,66.50
2018-02-05T04:49:16.967Z,66.80
2018-02-05T04:51:44.436Z,67.14
2018-02-05T04:54:11.949Z,67.53
2018-02-05T04:56:39.397Z,67.33
2018-02-05T04:59:07.297Z,67.30
2018-02-05T05:01:34.744Z,66.03
2018-02-05T05:04:02.177Z,65.88
2018-02-05T05:06:29.623Z,67.37
2018-02-05T05:08:57.127Z,66.68
2018-02-05T05:11:24.564Z,67.87
2018-02-05T05:13:51.997Z,67.42
2018-02-05T05:16:19.541Z,66.94
2018-02-05T05:18:46.969Z,67.24
2018-02-05T05:21:14.441Z,66.89
2018-02-05T05:23:41.875Z,67.21
2018-02-05T05:26:09.306Z,67.25
2018-02-05T05:28:37.525Z,66.90
2018-02-05T05:31:05.328Z,66.87
2018-02-05T05:33:32.784Z,67.49
2018-02-05T05:36:00.226Z,67.13
2018-02-05T05:38:27.707Z,67.90
2018-02-05T05:40:55.150Z,67.91
2018-02-05T05:43:22.723Z,67.78
2018-02-05T05:45:50.164Z,66.71
2018-02-05T05:48:17.617Z,66.79
2018-02-05T05:50:45.201Z,67.94
2018-02-05T05:53:12.703Z,67.05
2018-02-05T05:55:40.162Z,67.80
2018-02-05T05:58:07.614Z,67.01
2018-02-05T06:00:35.045Z,66.51
2018-02-05T06:03:02.511Z,66.33
2018-02-05T06:05:29.952Z,66.36
2018-02-05T06:07:57.555Z,67.52
2018-02-05T06:10:25.025Z,66.62
2018-02-05T06:12:52.505Z,66.19
2018-02-05T06:15:20.080Z,66.36
2018-02-05T06:17:47.594Z,66.48
2018-02-05T06:20:15.052Z,66.96
2018-02-05T06:22:42.494Z,66.81
2018-02-05T06:25:09.958Z,66.81
2018-02-05T06:27:38.056Z,66.90
2018-02-05T06:42:59.718Z,66.30
2018-02-05T06:45:27.174Z,67.04
2018-02-05T06:47:54.609Z,67.24
2018-02-05T06:50:33.816Z,67.36
2018-02-05T06:53:13.005Z,66.27
2018-02-05T06:55:47.414Z,66.70
2018-02-05T06:58:14.927Z,66.54
2018-02-05T07:00:42.396Z,67.66
2018-02-05T07:03:09.846Z,65.95
2018-02-05T07:05:37.920Z,67.02
2018-02-05T07:08:05.392Z,65.12
2018-02-05T07:10:32.850Z,65.83
2018-02-05T07:13:00.290Z,66.71
2018-02-05T07:15:27.758Z,66.14
2018-02-05T07:17:55.195Z,66.33
2018-02-05T07:20:22.654Z,65.66
2018-02-05T07:22:50.116Z,65.61
2018-02-05T07:25:17.752Z,66.45
2018-02-05T07:27:45.206Z,66.67
2018-02-05T07:30:12.642Z,65.68
2018-02-05T07:32:40.098Z,65.85
2018-02-05T07:35:08.052Z,65.25
2018-02-05T07:37:35.497Z,65.21
2018-02-05T07:40:02.934Z,65.82
2018-02-05T07:42:30.409Z,66.05
2018-02-05T07:44:57.837Z,65.92
2018-02-05T07:47:25.290Z,65.92
2018-02-05T07:49:52.777Z,64.73
2018-02-05T07:52:20.204Z,65.15
2018-02-05T07:54:47.641Z,65.49
2018-02-05T07:57:15.085Z,65.87
2018-02-05T07:59:42.586Z,65.12
2018-02-05T08:02:10.335Z,64.62
2018-02-05T08:04:38.200Z,66.17
2018-02-05T08:07:05.645Z,66.16
2018-02-05T08:09:33.136Z,65.47
2018-02-05T08:12:00.643Z,65.82
2018-02-05T08:14:28.080Z,65.87
2018-02-05T08:16:55.545Z,64.65
2018-02-05T08:19:23.001Z,65.50
2018-02-05T08:21:50.432Z,65.76
2018-02-05T08:24:17.942Z,64.80
2018-02-05T08:26:46.035Z,64.84
2018-02-05T08:29:13.776Z,65.01
2018-02-05T08:31:41.310Z,64.48
2018-02-05T08:34:08.997Z,64.51
2018-02-05T08:36:36.432Z,64.74
2018-02-05T08:39:03.911Z,64.21
2018-02-05T08:41:31.350Z,64.35
2018-02-05T08:43:58.850Z,64.27
2018-02-05T08:46:26.319Z,64.42
2018-02-05T08:48:53.769Z,63.46
2018-02-05T08:51:21.217Z,63.67
2018-02-05T08:53:48.693Z,64.24
2018-02-05T08:56:16.237Z,63.60
2018-02-05T08:58:52.604Z,62.96
2018-02-05T09:01:26.370Z,64.14
2018-02-05T09:03:53.930Z,63.32
2018-02-05T09:06:21.424Z,63.81
2018-02-05T09:08:48.899Z,63.46
2018-02-05T09:11:16.345Z,64.12
2018-02-05T09:13:43.897Z,63.25
2018-02-05T09:16:11.425Z,62.96
2018-02-05T09:18:38.861Z,62.80
2018-02-05T09:21:06.426Z,61.58
2018-02-05T09:23:33.912Z,61.44
2018-02-05T09:26:02.465Z,61.60
2018-02-05T09:28:29.898Z,60.79
2018-02-05T09:30:57.405Z,60.48
2018-02-05T09:33:24.897Z,60.93
2018-02-05T09:35:52.496Z,61.16
2018-02-05T09:38:20.006Z,60.72
2018-02-05T09:40:47.453Z,60.68
2018-02-05T09:43:14.896Z,61.11
2018-02-05T09:45:42.364Z,61.11
2018-02-05T09:48:09.786Z,60.73
2018-02-05T09:50:37.262Z,59.90
2018-02-05T09:53:04.710Z,60.60
2018-02-05T09:55:32.147Z,59.78
2018-02-05T09:57:59.587Z,59.30
2018-02-05T10:00:27.061Z,60.06
2018-02-05T10:02:54.505Z,59.47
2018-02-05T10:05:21.994Z,58.75
2018-02-05T10:07:49.461Z,58.30
2018-02-05T10:10:16.893Z,58.59
2018-02-05T10:12:44.335Z,57.77
2018-02-05T10:15:11.765Z,57.15
2018-02-05T10:17:39.285Z,57.94
2018-02-05T10:20:06.676Z,58.42
2018-02-05T10:22:34.154Z,58.34
2018-02-05T10:25:01.609Z,56.76
2018-02-05T10:27:29.073Z,56.81
2018-02-05T10:29:56.523Z,56.64
2018-02-05T10:32:24.019Z,56.64
2018-02-05T10:34:51.495Z,55.95
2018-02-05T10:37:18.929Z,55.15
2018-02-05T10:39:46.419Z,56.87
2018-02-05T10:42:13.924Z,57.18
2018-02-05T10:44:41.382Z,56.52
2018-02-05T10:47:08.821Z,56.42
2018-02-05T10:49:36.367Z,55.29
2018-02-05T10:52:03.801Z,55.98
2018-02-05T10:54:31.259Z,56.32
2018-02-05T10:56:58.828Z,55.48
2018-02-05T10:59:26.406Z,56.17
2018-02-05T11:01:54.547Z,55.25
2018-02-05T11:04:21.988Z,56.30
2018-02-05T11:06:49.487Z,55.66
2018-02-05T11:09:16.900Z,55.55
2018-02-05T11:11:44.355Z,56.04
2018-02-05T11:14:11.795Z,55.26
2018-02-05T11:16:39.346Z,55.11
2018-02-05T11:19:06.786Z,55.45
2018-02-05T11:21:34.213Z,55.39
2018-02-05T11:24:01.658Z,55.29
2018-02-05T11:26:29.120Z,54.74
2018-02-05T11:28:56.549Z,55.32
2018-02-05T11:31:24.042Z,55.63
2018-02-05T11:33:51.498Z,53.73
2018-02-05T11:36:18.961Z,53.60
2018-02-05T11:38:46.381Z,53.59
2018-02-05T11:41:13.931Z,54.22
2018-02-05T11:43:41.405Z,52.97
2018-02-05T11:46:09.109Z,52.33
2018-02-05T11:48:36.589Z,51.78
2018-02-05T11:51:04.049Z,52.48
2018-02-05T11:53:31.507Z,52.28
2018-02-05T11:55:58.998Z,52.16
2018-02-05T11:58:26.417Z,51.53
2018-02-05T12:00:53.864Z,51.36
2018-02-05T12:03:21.300Z,50.97
2018-02-05T12:05:48.737Z,51.33
2018-02-05T12:08:16.177Z,49.89
2018-02-05T12:10:43.618Z,48.61
2018-02-05T12:13:11.049Z,48.34
2018-02-05T12:15:39.098Z,48.30
2018-02-05T12:18:06.522Z,47.68
2018-02-05T12:20:34.628Z,47.27
2018-02-05T12:23:02.109Z,46.21
2018-02-05T12:25:29.544Z,48.00
2018-02-05T12:27:56.993Z,44.52
2018-02-05T12:30:31.060Z,47.02
2018-02-05T12:32:58.595Z,46.05
2018-02-05T12:35:26.036Z,45.94
2018-02-05T12:37:53.524Z,45.63
2018-02-05T12:40:20.981Z,45.16
2018-02-05T12:42:48.434Z,44.13
2018-02-05T12:45:16.211Z,44.93
2018-02-05T12:47:43.649Z,44.97
2018-02-05T12:50:11.086Z,45.59
2018-02-05T12:52:39.270Z,43.45
2018-02-05T12:55:06.737Z,42.41
2018-02-05T12:57:34.190Z,44.51
2018-02-05T13:13:21.495Z,39.22
2018-02-05T13:15:48.956Z,40.04
2018-02-05T13:18:16.457Z,41.75
2018-02-05T13:20:43.949Z,36.89
2018-02-05T13:23:11.470Z,37.51
2018-02-05T13:25:39.033Z,36.48
2018-02-05T13:28:06.487Z,35.66
2018-02-05T13:30:33.962Z,35.21
2018-02-05T13:33:01.469Z,35.89
2018-02-05T13:35:28.905Z,36.40
2018-02-05T13:37:56.354Z,36.13
2018-02-05T13:40:23.799Z,34.89
2018-02-05T13:42:51.229Z,34.55
2018-02-05T13:45:18.672Z,34.81
2018-02-05T13:47:46.102Z,33.11
2018-02-05T13:50:13.631Z,32.39
2018-02-05T13:52:41.072Z,31.66
2018-02-05T13:55:09.516Z,34.43
2018-02-05T13:57:36.957Z,30.18
2018-02-05T14:00:04.398Z,30.89
2018-02-05T14:02:31.839Z,32.64
2018-02-05T14:04:59.281Z,30.60
2018-02-05T14:07:26.726Z,31.67
2018-02-05T14:09:54.187Z,29.07
2018-02-05T14:12:21.836Z,29.73
2018-02-05T14:14:49.281Z,30.61
2018-02-05T14:17:16.742Z,29.26
2018-02-05T14:19:44.178Z,32.63
2018-02-05T14:22:11.626Z,28.40
2018-02-05T14:24:39.628Z,28.14
2018-02-05T14:27:07.092Z,30.78
2018-02-05T14:29:34.530Z,30.97
2018-02-05T14:32:01.982Z,28.94
2018-02-05T14:34:29.399Z,30.19
2018-02-05T14:36:56.844Z,28.89
2018-02-05T14:39:24.274Z,30.91
2018-02-05T14:41:51.753Z,33.53
2018-02-05T14:44:19.185Z,35.37
2018-02-05T14:46:46.644Z,34.41
2018-02-05T14:49:14.074Z,35.69
2018-02-05T14:51:41.516Z,36.61
2018-02-05T14:54:09.741Z,36.33
2018-02-05T14:56:37.192Z,36.05
2018-02-05T14:59:04.639Z,36.23
2018-02-05T15:01:32.103Z,37.89
2018-02-05T15:03:59.577Z,37.76
2018-02-05T15:06:27.024Z,37.78
2018-02-05T15:08:54.469Z,38.13
2018-02-05T15:11:21.938Z,38.82
2018-02-05T15:13:49.401Z,39.45
2018-02-05T15:16:16.840Z,39.20
2018-02-05T15:18:44.474Z,40.08
2018-02-05T15:21:11.896Z,39.89
2018-02-05T15:23:39.884Z,40.20
2018-02-05T15:26:07.300Z,39.94
2018-02-05T15:28:34.754Z,41.33
2018-02-05T15:31:02.198Z,40.08
2018-02-05T15:33:29.621Z,41.12
2018-02-05T15:35:57.069Z,41.28
2018-02-05T15:38:24.508Z,41.43
2018-02-05T15:40:52.015Z,42.19
2018-02-05T15:43:19.405Z,41.49
2018-02-05T15:45:46.862Z,42.76
2018-02-05T15:48:14.374Z,42.05
2018-02-05T15:50:41.820Z,42.37
2018-02-05T15:53:10.185Z,43.05
2018-02-05T15:55:37.641Z,42.80
2018-02-05T15:58:05.124Z,43.16
2018-02-05T16:00:32.577Z,43.64
2018-02-05T16:03:00.133Z,43.82
2018-02-05T16:05:27.575Z,43.82
2018-02-05T16:07:55.072Z,44.36
2018-02-05T16:10:22.557Z,43.86
2018-02-05T16:12:49.974Z,44.14
2018-02-05T16:15:17.644Z,44.80
2018-02-05T16:17:45.061Z,45.24
2018-02-05T16:20:12.606Z,44.36
2018-02-05T16:22:40.092Z,45.02
2018-02-05T16:25:07.521Z,44.75
2018-02-05T16:27:35.001Z,45.92
2018-02-05T16:30:02.447Z,45.41
2018-02-05T16:32:29.873Z,46.44
2018-02-05T16:34:57.339Z,46.75
2018-02-05T16:37:24.761Z,46.95
2018-02-05T16:39:52.196Z,46.83
2018-02-05T16:42:19.825Z,46.83
2018-02-05T16:44:47.254Z,46.66
2018-02-05T16:47:14.741Z,46.45
2018-02-05T16:49:42.194Z,47.13
2018-02-05T16:52:10.376Z,48.27
2018-02-05T16:54:37.917Z,47.55
2018-02-05T16:57:05.464Z,47.16
2018-02-05T16:59:32.929Z,48.27
2018-02-05T17:02:00.401Z,48.62
2018-02-05T17:04:27.842Z,48.11
2018-02-05T17:06:55.287Z,49.38
2018-02-05T17:09:22.709Z,48.82
2018-02-05T17:11:50.145Z,48.84
2018-02-05T17:14:17.575Z,49.19
2018-02-05T17:16:45.170Z,49.12
2018-02-05T17:19:12.621Z,49.41
2018-02-05T17:21:40.382Z,47.96
2018-02-05T17:24:07.815Z,49.27
2018-02-05T17:26:35.448Z,48.87
2018-02-05T17:29:03.107Z,49.32
2018-02-05T17:31:30.773Z,49.90
2018-02-05T17:33:58.327Z,49.39
2018-02-05T17:36:25.750Z,49.61
2018-02-05T17:38:53.186Z,49.21
2018-02-05T17:41:20.725Z,49.02
2018-02-05T17:43:48.199Z,49.65
2018-02-05T17:46:15.633Z,49.45
2018-02-05T17:48:43.280Z,48.72
2018-02-05T17:51:10.765Z,48.94
2018-02-05T17:53:38.471Z,48.96
2018-02-05T17:56:05.914Z,48.95
2018-02-05T17:58:33.409Z,49.74
2018-02-05T18:01:00.825Z,50.12
2018-02-05T18:03:28.295Z,50.31
2018-02-05T18:05:55.793Z,49.15
2018-02-05T18:08:23.255Z,49.04
2018-02-05T18:10:50.874Z,49.03
2018-02-05T18:13:18.369Z,49.28
2018-02-05T18:15:46.523Z,49.21
2018-02-05T18:18:13.965Z,49.73
2018-02-05T18:20:41.400Z,49.66
2018-02-05T18:23:08.849Z,49.44
2018-02-05T18:25:36.360Z,49.49
2018-02-05T18:28:03.918Z,50.02
2018-02-05T18:30:31.395Z,50.09
2018-02-05T18:32:58.817Z,49.99
2018-02-05T18:35:26.501Z,50.40
2018-02-05T18:37:53.929Z,50.65
2018-02-05T18:40:21.365Z,50.28
2018-02-05T18:42:48.809Z,49.54
2018-02-05T18:45:16.361Z,50.16
2018-02-05T18:47:43.797Z,49.52
2018-02-05T18:50:11.249Z,50.07
2018-02-05T18:52:38.692Z,49.30
2018-02-05T18:55:06.440Z,48.60
2018-02-05T18:57:33.899Z,48.82
2018-02-05T19:13:27.112Z,50.50
2018-02-05T19:15:54.721Z,51.54
2018-02-05T19:18:23.129Z,50.77
2018-02-05T19:20:50.585Z,51.47
2018-02-05T19:23:18.133Z,50.72
2018-02-05T19:25:46.843Z,51.55
2018-02-05T19:28:14.536Z,51.31
2018-02-05T19:30:42.047Z,50.81
2018-02-05T19:33:10.833Z,51.03
2018-02-05T19:35:38.396Z,50.66
2018-02-05T19:38:05.892Z,50.23
2018-02-05T19:40:33.719Z,51.12
2018-02-05T19:43:01.820Z,50.48
2018-02-05T19:45:30.462Z,50.73
2018-02-05T19:47:57.953Z,49.75
2018-02-05T19:50:25.653Z,50.12
2018-02-05T19:52:53.105Z,49.42
2018-02-05T19:55:21.501Z,50.51
2018-02-05T19:57:51.137Z,50.71
2018-02-05T20:00:18.615Z,50.29
2018-02-05T20:02:46.094Z,50.49
2018-02-05T20:05:14.482Z,50.02
2018-02-05T20:07:46.441Z,51.64
2018-02-05T20:10:13.921Z,51.23
2018-02-05T20:12:43.225Z,50.84
2018-02-05T20:15:13.414Z,51.45
2018-02-05T20:17:40.995Z,50.38
2018-02-05T20:20:08.450Z,50.96
2018-02-05T20:22:35.952Z,51.23
2018-02-05T20:25:06.405Z,50.50
2018-02-05T20:27:35.556Z,50.65
2018-02-05T20:30:02.985Z,50.31
2018-02-05T20:32:30.529Z,50.78
2018-02-05T20:34:57.966Z,49.80
2018-02-05T20:37:26.772Z,49.63
2018-02-05T20:39:54.350Z,49.69
2018-02-05T20:42:22.054Z,50.43
2018-02-05T20:44:49.497Z,50.60
2018-02-05T20:47:16.949Z,50.13
2018-02-05T20:49:44.385Z,50.93
2018-02-05T20:52:11.832Z,49.13
2018-02-05T20:54:39.393Z,49.73
2018-02-05T20:57:06.980Z,49.69
2018-02-05T20:59:34.438Z,50.10
2018-02-05T21:02:01.930Z,49.79
2018-02-05T21:04:29.399Z,49.47
2018-02-05T21:06:56.829Z,49.89
2018-02-05T21:09:24.307Z,49.48
2018-02-05T21:11:52.205Z,49.73
2018-02-05T21:14:19.658Z,49.95
2018-02-05T21:16:47.141Z,50.03
2018-02-05T21:19:14.578Z,50.61
2018-02-05T21:21:42.018Z,50.11
2018-02-05T21:24:09.480Z,49.86
2018-02-05T21:26:36.945Z,50.46
2018-02-05T21:29:04.412Z,49.96
2018-02-05T21:31:31.855Z,50.03
2018-02-05T21:33:59.330Z,50.16
2018-02-05T21:36:26.897Z,50.64
2018-02-05T21:38:54.360Z,50.37
2018-02-05T21:41:21.790Z,50.37
2018-02-05T21:43:49.222Z,49.62
2018-02-05T21:46:16.672Z,49.10
2018-02-05T21:48:44.110Z,50.15
2018-02-05T21:51:11.756Z,49.76
2018-02-05T21:53:39.185Z,49.86
2018-02-05T21:56:06.680Z,50.20
2018-02-05T21:58:34.109Z,51.03
2018-02-05T22:01:01.550Z,50.85
2018-02-05T22:03:28.989Z,50.40
2018-02-05T22:05:56.445Z,49.89
2018-02-05T22:08:23.938Z,50.77
2018-02-05T22:10:51.385Z,50.19
2018-02-05T22:13:18.914Z,50.15
2018-02-05T22:15:46.379Z,49.76
2018-02-05T22:18:13.832Z,50.19
2018-02-05T22:20:42.134Z,50.42
2018-02-05T22:23:09.563Z,49.80
2018-02-05T22:25:37.068Z,49.64
2018-02-05T22:28:04.493Z,49.97
2018-02-05T22:30:31.942Z,49.90
2018-02-05T22:32:59.383Z,50.20
2018-02-05T22:35:26.854Z,49.76
2018-02-05T22:37:54.289Z,48.97
2018-02-05T22:40:21.768Z,49.73
2018-02-05T22:42:49.241Z,49.94
2018-02-05T22:45:16.694Z,50.18
2018-02-05T22:47:44.150Z,51.09
2018-02-05T22:50:11.806Z,50.46
2018-02-05T22:52:39.297Z,50.51
2018-02-05T22:55:06.752Z,50.64
2018-02-05T22:57:34.194Z,52.11
2018-02-05T23:00:01.640Z,50.45
2018-02-05T23:02:29.093Z,51.34
2018-02-05T23:04:56.540Z,51.48
2018-02-05T23:07:23.998Z,50.74
2018-02-05T23:09:51.440Z,50.65
2018-02-05T23:12:18.906Z,51.19
2018-02-05T23:14:46.343Z,51.50
2018-02-05T23:17:13.874Z,50.72
2018-02-05T23:19:41.814Z,50.25
2018-02-05T23:22:09.255Z,50.23
2018-02-05T23:24:36.809Z,50.54
2018-02-05T23:27:05.902Z,49.85
2018-02-05T23:29:33.393Z,50.59
2018-02-05T23:32:00.822Z,49.93
2018-02-05T23:34:28.276Z,50.55
2018-02-05T23:36:55.717Z,50.00
2018-02-05T23:39:23.196Z,50.23
2018-02-05T23:41:50.642Z,50.16
2018-02-05T23:44:18.265Z,50.11
2018-02-05T23:46:45.708Z,50.37
2018-02-05T23:49:13.153Z,50.73
2018-02-05T23:51:40.585Z,50.39
2018-02-05T23:54:08.091Z,50.29
2018-02-05T23:56:35.676Z,49.77
2018-02-05T23:59:03.132Z,51.12
